Bentonia, Mississippi
Current Conditions -  °F | °C
As of 10:53 AM on Saturday 20 Dec 2014 (Local Time) from KHKS Reporting Station
Clear Clear  
Wind Chill: 50°   Ceiling: Unl
Heat Index: 50°   Visibility: 10mi
Dew Point: 41°   Wind: 9mph
Humidity: 71%   Direction: 20°NNE
Pressure: 30.23"   Gusts: NA
Location:  32.64°N, 90.36°W
Report Text: KHKS 201653Z 02008KT 10SM CLR 10/05 A3023 RMK AO2 SLP232 T01000050
Loading
Personal Weather Stations






























Interactive Weather Map New forecast layout! Learn more

10-Day Weather Forecast

Advertisements
Track Severe Weather on mobile